createdAt,value
2022-10-23T00:00:00.803Z,12.2
2022-10-23T00:03:01.253Z,12.2
2022-10-23T00:06:00.854Z,12.2
2022-10-23T00:09:00.706Z,12
2022-10-23T00:12:00.736Z,12
2022-10-23T00:15:02.887Z,12
2022-10-23T00:18:00.838Z,12
2022-10-23T00:21:00.772Z,12
2022-10-23T00:24:00.784Z,12
2022-10-23T00:27:02.646Z,12
2022-10-23T00:30:00.719Z,12
2022-10-23T00:33:00.716Z,12
2022-10-23T00:36:00.729Z,12
2022-10-23T00:39:00.729Z,12
2022-10-23T00:42:01.994Z,12
2022-10-23T00:45:01.388Z,11.6
2022-10-23T00:48:00.843Z,11.5
2022-10-23T00:51:01.259Z,11.5
2022-10-23T00:54:23.264Z,11.5
2022-10-23T00:57:00.903Z,11.5
2022-10-23T01:00:00.697Z,11.5
2022-10-23T01:03:00.917Z,11.5
2022-10-23T01:06:00.754Z,11.5
2022-10-23T01:09:00.904Z,11.5
2022-10-23T01:12:00.950Z,11.5
2022-10-23T01:15:00.776Z,11.5
2022-10-23T01:18:01.665Z,11.5
2022-10-23T01:21:00.917Z,11.4
2022-10-23T01:24:00.733Z,11.4
2022-10-23T01:27:00.785Z,11.4
2022-10-23T01:30:00.738Z,11.4
2022-10-23T01:33:00.758Z,11.4
2022-10-23T01:36:00.704Z,11.4
2022-10-23T01:39:00.872Z,11.4
2022-10-23T01:42:01.694Z,11.4
2022-10-23T01:45:00.736Z,11.4
2022-10-23T01:48:00.859Z,11.4
2022-10-23T01:51:01.179Z,11.4
2022-10-23T01:54:02.097Z,11.4
2022-10-23T01:57:00.743Z,11.4
2022-10-23T02:00:00.770Z,11.4
2022-10-23T02:03:00.741Z,11.4
2022-10-23T02:06:00.730Z,11.4
2022-10-23T02:09:00.694Z,11.3
2022-10-23T02:12:00.814Z,11.3
2022-10-23T02:15:01.169Z,11.3
2022-10-23T02:18:00.716Z,11.3
2022-10-23T02:21:00.709Z,11.3
2022-10-23T02:24:00.731Z,11.3
2022-10-23T02:27:00.738Z,11.3
2022-10-23T02:30:00.749Z,11
2022-10-23T02:33:00.714Z,11
2022-10-23T02:36:00.714Z,11
2022-10-23T02:39:00.712Z,11
2022-10-23T02:42:00.720Z,11
2022-10-23T02:45:00.742Z,11
2022-10-23T02:48:00.728Z,11
2022-10-23T02:51:00.734Z,11
2022-10-23T02:54:00.779Z,11
2022-10-23T02:57:00.744Z,11
2022-10-23T03:00:00.755Z,11
2022-10-23T03:03:00.733Z,11
2022-10-23T03:06:00.754Z,11
2022-10-23T03:09:00.749Z,11
2022-10-23T03:12:00.744Z,11
2022-10-23T03:15:00.694Z,11
2022-10-23T03:18:00.829Z,11
2022-10-23T03:21:00.755Z,11
2022-10-23T03:24:00.698Z,10.7
2022-10-23T03:27:00.778Z,10.7
2022-10-23T03:30:00.731Z,10.7
2022-10-23T03:33:00.767Z,10.7
2022-10-23T03:36:00.739Z,10.7
2022-10-23T03:39:00.734Z,10.7
2022-10-23T03:42:00.697Z,10.5
2022-10-23T03:45:00.711Z,10.5
2022-10-23T03:48:00.711Z,10.5
2022-10-23T03:51:00.717Z,10.5
2022-10-23T03:54:00.776Z,10.5
2022-10-23T03:57:00.702Z,10.5
2022-10-23T04:00:00.792Z,10.5
2022-10-23T04:03:00.758Z,10.5
2022-10-23T04:06:00.765Z,10.5
2022-10-23T04:09:00.916Z,10.5
2022-10-23T04:12:00.763Z,10.5
2022-10-23T04:15:00.712Z,10.5
2022-10-23T04:18:00.684Z,10.5
2022-10-23T04:21:00.733Z,10.5
2022-10-23T04:24:00.737Z,10.3
2022-10-23T04:27:00.808Z,10.2
2022-10-23T04:30:00.711Z,10.2
2022-10-23T04:33:00.690Z,10.2
2022-10-23T04:36:00.762Z,10.2
2022-10-23T04:39:00.697Z,10.2
2022-10-23T04:42:00.758Z,10.2
2022-10-23T04:45:00.712Z,10.2
2022-10-23T04:48:00.731Z,10.2
2022-10-23T04:51:00.688Z,10.2
2022-10-23T04:54:00.753Z,10.2
2022-10-23T04:57:00.677Z,10.2
2022-10-23T05:00:00.850Z,10.2
2022-10-23T05:03:00.690Z,10.2
2022-10-23T05:06:00.712Z,10.2
2022-10-23T05:09:00.729Z,10
2022-10-23T05:12:00.714Z,10
2022-10-23T05:15:00.801Z,10
2022-10-23T05:18:00.685Z,10
2022-10-23T05:21:00.810Z,10
2022-10-23T05:27:00.749Z,10.1
2022-10-23T05:30:00.697Z,10.1
2022-10-23T05:33:00.770Z,10.1
2022-10-23T05:36:00.757Z,10.1
2022-10-23T05:39:00.723Z,10.1
2022-10-23T05:42:00.731Z,10.1
2022-10-23T05:45:00.788Z,10.1
2022-10-23T05:48:22.420Z,10.1
2022-10-23T05:51:00.706Z,10.1
2022-10-23T05:54:00.736Z,10.1
2022-10-23T05:57:00.731Z,10.1
2022-10-23T06:00:00.827Z,10.1
2022-10-23T06:03:00.752Z,10.1
2022-10-23T06:06:00.840Z,10.1
2022-10-23T06:09:00.751Z,10.1
2022-10-23T06:12:00.791Z,10.1
2022-10-23T06:15:00.712Z,10.1
2022-10-23T06:18:00.934Z,9.8
2022-10-23T06:21:00.778Z,9.8
2022-10-23T06:24:00.768Z,9.8
2022-10-23T06:27:00.802Z,9.8
2022-10-23T06:30:00.748Z,9.8
2022-10-23T06:33:04.657Z,9.8
2022-10-23T06:36:00.748Z,9.8
2022-10-23T06:42:00.827Z,9.8
2022-10-23T06:45:06.360Z,9.8
2022-10-23T06:48:00.776Z,9.8
2022-10-23T06:51:00.779Z,9.8
2022-10-23T06:54:00.788Z,9.8
2022-10-23T06:57:00.774Z,9.8
2022-10-23T07:00:00.851Z,9.8
2022-10-23T07:03:00.838Z,9.8
2022-10-23T07:06:00.763Z,9.8
2022-10-23T07:09:00.772Z,9.8
2022-10-23T07:12:00.849Z,10
2022-10-23T07:15:00.829Z,10
2022-10-23T07:18:00.808Z,10
2022-10-23T07:21:00.821Z,10
2022-10-23T07:24:00.800Z,10
2022-10-23T07:27:00.779Z,10
2022-10-23T07:30:00.822Z,10
2022-10-23T07:33:00.826Z,10
2022-10-23T07:36:00.801Z,10
2022-10-23T07:39:00.782Z,10
2022-10-23T07:42:00.785Z,10.3
2022-10-23T07:45:00.831Z,10.3
2022-10-23T07:48:00.798Z,10.3
2022-10-23T07:51:00.775Z,10.3
2022-10-23T07:54:00.766Z,10.3
2022-10-23T07:57:00.752Z,10.3
2022-10-23T08:00:00.794Z,10.3
2022-10-23T08:03:00.753Z,10.3
2022-10-23T08:06:00.747Z,10.8
2022-10-23T08:09:06.142Z,10.9
2022-10-23T08:12:00.841Z,10.9
2022-10-23T08:15:00.747Z,10.9
2022-10-23T08:18:00.797Z,10.9
2022-10-23T08:21:00.757Z,10.9
2022-10-23T08:24:00.798Z,10.9
2022-10-23T08:27:00.751Z,10.9
2022-10-23T08:30:00.945Z,10.9
2022-10-23T08:33:00.729Z,11.4
2022-10-23T08:36:00.807Z,11.4
2022-10-23T08:39:00.770Z,11.4
2022-10-23T08:42:00.900Z,11.4
2022-10-23T08:45:00.794Z,11.4
2022-10-23T08:48:00.752Z,11.4
2022-10-23T08:51:00.812Z,11.4
2022-10-23T08:54:00.779Z,11.4
2022-10-23T08:57:00.744Z,11.9
2022-10-23T09:00:00.779Z,12
2022-10-23T09:03:00.942Z,12
2022-10-23T09:06:00.792Z,12
2022-10-23T09:09:00.750Z,12
2022-10-23T09:12:00.811Z,12
2022-10-23T09:15:00.758Z,12.4
2022-10-23T09:18:00.761Z,12.4
2022-10-23T09:21:00.762Z,12.4
2022-10-23T09:24:00.819Z,12.4
2022-10-23T09:27:00.920Z,12.4
2022-10-23T09:30:00.770Z,12.4
2022-10-23T09:33:00.751Z,12.4
2022-10-23T09:36:00.778Z,12.4
2022-10-23T09:39:00.756Z,12.9
2022-10-23T09:42:00.825Z,12.9
2022-10-23T09:45:00.742Z,12.9
2022-10-23T09:48:00.786Z,12.9
2022-10-23T09:51:00.754Z,12.9
2022-10-23T09:54:00.789Z,12.9
2022-10-23T09:57:00.791Z,13.3
2022-10-23T10:00:00.978Z,13.4
2022-10-23T10:03:00.740Z,13.4
2022-10-23T10:06:00.747Z,13.4
2022-10-23T10:09:00.778Z,13.4
2022-10-23T10:12:00.790Z,13.4
2022-10-23T10:15:00.722Z,13.4
2022-10-23T10:18:00.767Z,13.4
2022-10-23T10:21:00.787Z,14
2022-10-23T10:24:00.778Z,14
2022-10-23T10:27:00.778Z,14
2022-10-23T10:30:00.858Z,14
2022-10-23T10:33:00.726Z,14
2022-10-23T10:36:00.746Z,14.2
2022-10-23T10:39:00.733Z,14.2
2022-10-23T10:42:00.783Z,14.2
2022-10-23T10:45:00.756Z,14.2
2022-10-23T10:48:00.777Z,14.5
2022-10-23T10:51:00.773Z,14.5
2022-10-23T10:54:00.831Z,14.6
2022-10-23T10:57:00.778Z,14.6
2022-10-23T11:00:00.857Z,14.6
2022-10-23T11:03:00.804Z,14.6
2022-10-23T11:06:00.824Z,14.6
2022-10-23T11:09:20.513Z,14.6
2022-10-23T11:12:00.778Z,15
2022-10-23T11:15:00.766Z,15
2022-10-23T11:18:00.757Z,15
2022-10-23T11:21:00.742Z,15
2022-10-23T11:24:00.885Z,15
2022-10-23T11:27:00.751Z,15.5
2022-10-23T11:30:00.825Z,15.5
2022-10-23T11:33:00.818Z,15.5
2022-10-23T11:36:00.870Z,15.5
2022-10-23T11:39:00.756Z,15.7
2022-10-23T11:42:00.753Z,15.7
2022-10-23T11:45:00.816Z,15.7
2022-10-23T11:48:00.807Z,15.7
2022-10-23T11:51:04.328Z,16.2
2022-10-23T11:54:00.768Z,16.2
2022-10-23T11:57:00.748Z,16.2
2022-10-23T12:00:00.855Z,16.2
2022-10-23T12:03:00.862Z,16.2
2022-10-23T12:06:00.826Z,16.2
2022-10-23T12:09:00.816Z,16.7
2022-10-23T12:12:00.842Z,16.7
2022-10-23T12:15:00.777Z,16.7
2022-10-23T12:18:00.841Z,16.7
2022-10-23T12:21:00.797Z,16.7
2022-10-23T12:24:00.815Z,17
2022-10-23T12:27:00.822Z,17
2022-10-23T12:30:00.834Z,17
2022-10-23T12:33:00.777Z,17
2022-10-23T12:36:00.823Z,17
2022-10-23T12:39:00.733Z,17
2022-10-23T12:42:00.874Z,17.2
2022-10-23T12:45:00.736Z,17.1
2022-10-23T12:48:00.764Z,17.1
2022-10-23T12:51:00.745Z,17.1
2022-10-23T12:54:00.740Z,17.3
2022-10-23T12:57:00.744Z,17.3
2022-10-23T13:00:00.832Z,17.3
2022-10-23T13:03:00.743Z,17.3
2022-10-23T13:06:00.770Z,17.3
2022-10-23T13:09:00.783Z,17.3
2022-10-23T13:12:00.770Z,17.3
2022-10-23T13:15:00.782Z,17.5
2022-10-23T13:18:00.787Z,17.5
2022-10-23T13:24:00.770Z,17.5
2022-10-23T13:27:00.780Z,17.5
2022-10-23T13:30:00.758Z,17.5
2022-10-23T13:33:00.781Z,17.5
2022-10-23T13:36:00.767Z,17.6
2022-10-23T13:39:00.783Z,17.6
2022-10-23T13:42:00.784Z,17.6
2022-10-23T13:45:00.773Z,17.6
2022-10-23T13:48:00.786Z,17.6
2022-10-23T13:51:00.766Z,17.6
2022-10-23T13:54:00.731Z,17.6
2022-10-23T13:57:00.739Z,17.6
2022-10-23T14:00:00.802Z,17.6
2022-10-23T14:03:00.783Z,17.6
2022-10-23T14:06:00.756Z,17.6
2022-10-23T14:09:00.785Z,17.6
2022-10-23T14:12:00.762Z,17.6
2022-10-23T14:15:00.759Z,17.6
2022-10-23T14:18:08.166Z,17.6
2022-10-23T14:21:00.811Z,17.7
2022-10-23T14:24:00.793Z,17.7
2022-10-23T14:27:00.992Z,17.7
2022-10-23T14:30:00.765Z,17.7
2022-10-23T14:33:00.761Z,17.7
2022-10-23T14:36:00.807Z,17.7
2022-10-23T14:39:00.805Z,17.7
2022-10-23T14:42:00.814Z,17.6
2022-10-23T14:45:00.787Z,17.6
2022-10-23T14:48:00.759Z,17.6
2022-10-23T14:51:00.790Z,17.6
2022-10-23T14:54:00.891Z,17.6
2022-10-23T14:57:00.749Z,17.6
2022-10-23T15:00:00.924Z,17.6
2022-10-23T15:03:00.794Z,17.6
2022-10-23T15:06:00.818Z,17.6
2022-10-23T15:09:00.810Z,17.6
2022-10-23T15:12:00.740Z,17.6
2022-10-23T15:15:00.811Z,17.6
2022-10-23T15:18:00.757Z,17.4
2022-10-23T15:21:00.767Z,17.4
2022-10-23T15:24:00.822Z,17.4
2022-10-23T15:27:00.981Z,17.4
2022-10-23T15:30:00.798Z,17.3
2022-10-23T15:33:00.755Z,17.3
2022-10-23T15:36:00.790Z,17.3
2022-10-23T15:39:00.782Z,17.3
2022-10-23T15:42:00.834Z,17.3
2022-10-23T15:45:00.730Z,17.3
2022-10-23T15:48:00.817Z,17.3
2022-10-23T15:51:00.728Z,17.3
2022-10-23T15:54:00.763Z,17.3
2022-10-23T15:57:00.730Z,17
2022-10-23T16:00:00.990Z,17
2022-10-23T16:03:00.780Z,17
2022-10-23T16:06:00.775Z,17
2022-10-23T16:09:00.809Z,17
2022-10-23T16:12:00.737Z,17
2022-10-23T16:15:00.724Z,17
2022-10-23T16:18:00.723Z,17
2022-10-23T16:21:00.713Z,17
2022-10-23T16:24:00.703Z,16.7
2022-10-23T16:27:00.807Z,16.7
2022-10-23T16:30:00.736Z,16.6
2022-10-23T16:33:00.802Z,16.6
2022-10-23T16:36:00.743Z,16.6
2022-10-23T16:39:00.719Z,16.6
2022-10-23T16:42:00.827Z,16.4
2022-10-23T16:45:00.737Z,16.4
2022-10-23T16:48:00.738Z,16.4
2022-10-23T16:51:00.730Z,16.3
2022-10-23T16:54:01.127Z,16.3
2022-10-23T16:57:00.709Z,16.3
2022-10-23T17:00:00.793Z,16.3
2022-10-23T17:03:00.723Z,16.3
2022-10-23T17:06:02.290Z,16.3
2022-10-23T17:09:00.787Z,16.3
2022-10-23T17:12:00.785Z,16.3
2022-10-23T17:15:00.808Z,16.1
2022-10-23T17:18:00.710Z,16.1
2022-10-23T17:21:00.705Z,16.1
2022-10-23T17:27:00.845Z,16.1
2022-10-23T17:30:00.786Z,16.1
2022-10-23T17:33:02.194Z,16.1
2022-10-23T17:36:00.760Z,15.8
2022-10-23T17:39:00.753Z,15.8
2022-10-23T17:42:00.737Z,15.8
2022-10-23T17:45:00.730Z,15.8
2022-10-23T17:48:00.794Z,15.8
2022-10-23T17:51:00.703Z,15.8
2022-10-23T17:54:00.739Z,15.8
2022-10-23T17:57:00.698Z,15.8
2022-10-23T18:00:00.762Z,15.8
2022-10-23T18:03:00.728Z,15.8
2022-10-23T18:06:00.731Z,15.8
2022-10-23T18:09:00.724Z,15.8
2022-10-23T18:12:00.770Z,15.8
2022-10-23T18:15:00.748Z,15.6
2022-10-23T18:18:00.733Z,15.6
2022-10-23T18:21:00.825Z,15.6
2022-10-23T18:24:00.778Z,15.6
2022-10-23T18:27:00.932Z,15.6
2022-10-23T18:30:00.743Z,15.6
2022-10-23T18:33:00.746Z,15.6
2022-10-23T18:36:00.727Z,15.6
2022-10-23T18:39:00.766Z,15.6
2022-10-23T18:42:00.794Z,15.6
2022-10-23T18:45:00.735Z,15.6
2022-10-23T18:48:00.726Z,15.3
2022-10-23T18:51:00.718Z,15.3
2022-10-23T18:54:00.755Z,15.3
2022-10-23T18:57:00.787Z,15.3
2022-10-23T19:00:00.750Z,15.3
2022-10-23T19:03:00.726Z,15.3
2022-10-23T19:06:00.802Z,15.3
2022-10-23T19:09:00.729Z,15.3
2022-10-23T19:12:00.879Z,15.3
2022-10-23T19:15:00.715Z,15.3
2022-10-23T19:18:00.774Z,15.3
2022-10-23T19:21:00.766Z,15.3
2022-10-23T19:24:00.687Z,15.3
2022-10-23T19:27:00.768Z,15.2
2022-10-23T19:30:00.718Z,15.2
2022-10-23T19:33:00.928Z,15.2
2022-10-23T19:36:06.086Z,15.2
2022-10-23T19:39:00.754Z,15.2
2022-10-23T19:42:00.715Z,15.2
2022-10-23T19:45:00.735Z,15.2
2022-10-23T19:48:00.744Z,15.2
2022-10-23T19:51:00.732Z,15.2
2022-10-23T19:54:00.776Z,15.2
2022-10-23T19:57:00.787Z,15.2
2022-10-23T20:00:00.749Z,15.2
2022-10-23T20:03:00.761Z,15.2
2022-10-23T20:06:00.753Z,15.2
2022-10-23T20:09:00.686Z,15.2
2022-10-23T20:12:00.767Z,15
2022-10-23T20:15:00.769Z,15
2022-10-23T20:18:00.739Z,15
2022-10-23T20:21:00.744Z,15
2022-10-23T20:24:00.749Z,15
2022-10-23T20:27:00.722Z,15
2022-10-23T20:30:00.769Z,15
2022-10-23T20:33:00.749Z,15
2022-10-23T20:36:00.726Z,15
2022-10-23T20:39:00.822Z,14.9
2022-10-23T20:42:00.853Z,14.9
2022-10-23T20:45:01.075Z,14.9
2022-10-23T20:48:00.851Z,14.9
2022-10-23T20:51:00.833Z,14.9
2022-10-23T20:54:00.764Z,14.9
2022-10-23T20:57:00.765Z,14.9
2022-10-23T21:00:00.837Z,14.9
2022-10-23T21:03:00.731Z,15
2022-10-23T21:06:00.860Z,15.1
2022-10-23T21:09:00.882Z,15
2022-10-23T21:12:00.759Z,15
2022-10-23T21:15:00.766Z,15
2022-10-23T21:18:13.312Z,15
2022-10-23T21:21:00.831Z,15
2022-10-23T21:24:00.751Z,15
2022-10-23T21:27:00.708Z,15
2022-10-23T21:30:00.886Z,15
2022-10-23T21:33:00.737Z,15
2022-10-23T21:36:13.806Z,15
2022-10-23T21:39:00.746Z,15
2022-10-23T21:42:00.749Z,15
2022-10-23T21:45:00.771Z,15
2022-10-23T21:48:00.755Z,15
2022-10-23T21:51:00.767Z,15
2022-10-23T21:54:00.714Z,15
2022-10-23T21:57:00.752Z,15
2022-10-23T22:00:01.230Z,15
2022-10-23T22:03:00.780Z,14.9
2022-10-23T22:06:00.783Z,14.9
2022-10-23T22:09:00.780Z,14.9
2022-10-23T22:12:00.818Z,14.9
2022-10-23T22:15:00.749Z,14.9
2022-10-23T22:18:00.828Z,14.9
2022-10-23T22:21:01.533Z,14.9
2022-10-23T22:24:00.982Z,14.9
2022-10-23T22:27:00.785Z,14.9
2022-10-23T22:30:00.801Z,14.7
2022-10-23T22:33:00.748Z,14.7
2022-10-23T22:36:00.814Z,14.7
2022-10-23T22:39:00.802Z,14.7
2022-10-23T22:42:00.802Z,14.7
2022-10-23T22:45:00.731Z,14.7
2022-10-23T22:48:00.732Z,14.7
2022-10-23T22:51:00.685Z,14.7
2022-10-23T22:54:00.736Z,14.7
2022-10-23T22:57:00.710Z,14.4
2022-10-23T23:00:00.779Z,14.4
2022-10-23T23:03:00.789Z,14.3
2022-10-23T23:06:00.724Z,14.3
2022-10-23T23:09:00.790Z,14.3
2022-10-23T23:12:00.771Z,14.3
2022-10-23T23:15:00.804Z,14.3
2022-10-23T23:18:00.748Z,14.3
2022-10-23T23:21:00.954Z,14.3
2022-10-23T23:24:00.692Z,14.3
2022-10-23T23:27:00.752Z,14.3
2022-10-23T23:30:00.772Z,14.3
2022-10-23T23:33:00.721Z,14.3
2022-10-23T23:36:00.722Z,14.3
2022-10-23T23:39:00.881Z,14.3
2022-10-23T23:42:00.788Z,14.3
2022-10-23T23:45:13.514Z,14.3
2022-10-23T23:48:00.714Z,14
2022-10-23T23:51:00.709Z,14
2022-10-23T23:54:00.726Z,14
2022-10-23T23:57:00.720Z,14
